createdAt,value
2023-02-02T00:07:07.756Z,3.78
2023-02-02T00:12:31.206Z,3.77
2023-02-02T00:17:38.402Z,3.74
2023-02-02T00:23:38.926Z,3.73
2023-02-02T00:28:49.024Z,3.72
2023-02-02T00:35:14.574Z,3.72
2023-02-02T00:41:10.119Z,3.70
2023-02-02T00:46:19.294Z,3.69
2023-02-02T00:52:12.967Z,3.65
2023-02-02T00:57:42.177Z,3.62
2023-02-02T01:02:45.903Z,3.53
2023-02-02T01:07:49.834Z,3.41
2023-02-02T01:12:55.552Z,3.29
2023-02-02T01:18:25.553Z,3.10
2023-02-02T01:24:51.521Z,2.97
2023-02-02T01:30:14.583Z,2.76
2023-02-02T01:35:20.157Z,2.61
2023-02-02T01:40:56.640Z,2.55
2023-02-02T01:46:36.833Z,2.50
2023-02-02T01:59:16.051Z,2.52
2023-02-02T02:05:10.219Z,2.53
2023-02-02T02:10:32.337Z,2.55
2023-02-02T02:16:28.905Z,2.60
2023-02-02T02:22:33.691Z,2.66
2023-02-02T02:28:15.615Z,2.74
2023-02-02T02:34:12.167Z,2.77
2023-02-02T02:39:47.871Z,2.78
2023-02-02T02:45:48.260Z,2.82
2023-02-02T02:50:52.021Z,2.89
2023-02-02T02:56:35.914Z,2.94
2023-02-02T03:02:34.028Z,3.01
2023-02-02T03:07:59.726Z,3.09
2023-02-02T03:13:09.830Z,3.14
2023-02-02T03:18:22.651Z,3.18
2023-02-02T03:23:26.963Z,3.24
2023-02-02T03:28:58.448Z,3.28
2023-02-02T03:34:20.802Z,3.40
2023-02-02T03:39:55.446Z,3.50
2023-02-02T03:44:59.179Z,3.59
2023-02-02T03:50:03.415Z,3.62
2023-02-02T03:55:08.056Z,3.63
2023-02-02T04:00:30.521Z,3.67
2023-02-02T04:05:59.155Z,3.71
2023-02-02T04:11:04.589Z,3.75
2023-02-02T04:17:28.078Z,3.79
2023-02-02T04:22:57.320Z,3.81
2023-02-02T04:28:00.921Z,3.81
2023-02-02T04:33:04.585Z,3.82
2023-02-02T04:38:27.026Z,3.83
2023-02-02T04:44:21.319Z,3.81
2023-02-02T04:49:25.236Z,3.77
2023-02-02T05:02:41.717Z,3.77
2023-02-02T05:09:37.081Z,3.76
2023-02-02T05:15:06.380Z,3.67
2023-02-02T05:20:10.952Z,3.68
2023-02-02T05:25:14.719Z,3.69
2023-02-02T05:35:37.245Z,3.67
2023-02-02T05:40:40.996Z,3.64
2023-02-02T05:45:44.523Z,3.65
2023-02-02T05:51:03.686Z,3.59
2023-02-02T05:56:08.337Z,3.51
2023-02-02T06:01:13.155Z,3.44
2023-02-02T06:06:16.895Z,3.35
2023-02-02T06:11:21.884Z,3.33
2023-02-02T06:16:26.077Z,3.31
2023-02-02T06:21:33.513Z,3.31
2023-02-02T06:26:39.227Z,3.35
2023-02-02T06:31:43.934Z,3.41
2023-02-02T06:36:50.128Z,3.45
2023-02-02T06:41:55.905Z,3.49
2023-02-02T06:46:59.792Z,3.51
2023-02-02T06:52:03.400Z,3.55
2023-02-02T06:57:07.033Z,3.57
2023-02-02T07:02:13.574Z,3.59
2023-02-02T07:07:17.748Z,3.62
2023-02-02T07:12:21.421Z,3.66
2023-02-02T07:17:26.911Z,3.76
2023-02-02T07:22:30.782Z,3.82
2023-02-02T07:27:35.306Z,3.84
2023-02-02T07:32:40.886Z,3.90
2023-02-02T07:37:51.793Z,3.89
2023-02-02T07:42:56.156Z,3.99
2023-02-02T07:48:00.796Z,4.13
2023-02-02T07:53:06.433Z,4.16
2023-02-02T07:58:11.368Z,4.16
2023-02-02T08:03:16.953Z,4.16
2023-02-02T08:08:22.307Z,4.17
2023-02-02T08:13:27.058Z,4.14
2023-02-02T08:18:32.320Z,4.20
2023-02-02T08:23:40.472Z,4.35
2023-02-02T08:28:48.222Z,4.53
2023-02-02T08:33:55.968Z,4.66
2023-02-02T08:39:07.485Z,4.65
2023-02-02T08:44:16.690Z,4.55
2023-02-02T08:49:20.342Z,4.44
2023-02-02T08:54:25.066Z,4.37
2023-02-02T08:59:31.013Z,4.33
2023-02-02T09:04:35.938Z,4.35
2023-02-02T09:09:39.960Z,4.29
2023-02-02T09:14:43.791Z,4.24
2023-02-02T09:19:47.915Z,4.26
2023-02-02T09:24:54.191Z,4.37
2023-02-02T09:29:58.120Z,4.46
2023-02-02T09:36:47.452Z,4.56
2023-02-02T09:43:05.084Z,4.58
2023-02-02T09:49:00.917Z,4.53
2023-02-02T09:54:21.055Z,4.59
2023-02-02T10:01:03.474Z,4.95
2023-02-02T10:06:40.579Z,5.53
2023-02-02T10:12:30.371Z,5.69
2023-02-02T10:18:04.850Z,5.56
2023-02-02T10:37:24.109Z,6.66
2023-02-02T10:43:46.887Z,6.38
2023-02-02T10:49:29.158Z,6.21
2023-02-02T10:54:56.465Z,6.25
2023-02-02T11:00:32.241Z,6.31
2023-02-02T11:05:56.461Z,6.95
2023-02-02T11:11:44.716Z,7.83
2023-02-02T11:17:06.896Z,7.60
2023-02-02T11:22:29.545Z,7.20
2023-02-02T11:27:41.869Z,6.80
2023-02-02T11:32:52.366Z,6.55
2023-02-02T11:38:18.779Z,6.25
2023-02-02T11:43:56.958Z,5.99
2023-02-02T11:49:20.233Z,5.76
2023-02-02T11:54:33.278Z,5.70
2023-02-02T11:59:44.289Z,5.86
2023-02-02T12:04:54.487Z,7.77
2023-02-02T12:10:31.652Z,7.24
2023-02-02T12:16:03.761Z,6.69
2023-02-02T12:21:53.551Z,8.93
2023-02-02T12:27:46.786Z,15.29
2023-02-02T12:33:05.501Z,18.67
2023-02-02T12:45:59.972Z,12.32
2023-02-02T12:51:31.340Z,10.15
2023-02-02T12:57:09.769Z,9.35
2023-02-02T13:10:09.703Z,8.52
2023-02-02T13:15:23.796Z,8.39
2023-02-02T13:21:11.698Z,7.40
2023-02-02T13:26:44.256Z,6.78
2023-02-02T13:32:06.636Z,10.46
2023-02-02T13:37:19.180Z,11.44
2023-02-02T13:43:39.177Z,9.48
2023-02-02T13:49:17.423Z,8.06
2023-02-02T13:54:33.321Z,7.05
2023-02-02T14:00:16.272Z,7.13
2023-02-02T14:14:39.235Z,5.63
2023-02-02T14:19:58.694Z,5.11
2023-02-02T14:32:25.686Z,4.51
2023-02-02T14:52:02.686Z,4.24
2023-02-02T15:05:38.495Z,3.93
2023-02-02T15:10:51.024Z,3.87
2023-02-02T15:16:29.946Z,3.82
2023-02-02T15:21:39.985Z,3.78
2023-02-02T15:33:52.720Z,3.76
2023-02-02T15:39:02.659Z,3.63
2023-02-02T15:44:28.863Z,3.48
2023-02-02T15:49:36.374Z,3.38
2023-02-02T15:54:51.631Z,3.33
2023-02-02T15:59:56.666Z,3.25
2023-02-02T16:05:00.519Z,3.21
2023-02-02T16:10:07.738Z,3.14
2023-02-02T16:15:36.727Z,3.11
2023-02-02T16:20:42.859Z,3.07
2023-02-02T16:25:55.027Z,2.98
2023-02-02T16:31:03.206Z,2.96
2023-02-02T16:36:25.003Z,2.96
2023-02-02T16:41:33.517Z,2.97
2023-02-02T16:46:50.073Z,2.95
2023-02-02T16:52:18.265Z,2.96
2023-02-02T16:57:33.155Z,2.95
2023-02-02T17:02:46.552Z,2.87
2023-02-02T17:08:04.199Z,2.80
2023-02-02T17:13:35.163Z,2.70
2023-02-02T17:18:40.088Z,2.64
2023-02-02T17:23:44.992Z,2.60
2023-02-02T17:28:50.805Z,2.57
2023-02-02T17:33:54.727Z,2.48
2023-02-02T17:38:59.068Z,2.41
2023-02-02T17:44:05.651Z,2.34
2023-02-02T17:49:09.240Z,2.35
2023-02-02T17:54:15.746Z,2.32
2023-02-02T17:59:20.068Z,2.20
2023-02-02T18:04:25.330Z,2.16
2023-02-02T18:09:34.540Z,2.16
2023-02-02T18:14:38.733Z,2.16
2023-02-02T18:19:45.607Z,2.13
2023-02-02T18:24:49.351Z,2.06
2023-02-02T18:29:53.382Z,2.07
2023-02-02T18:57:41.051Z,2.16
2023-02-02T19:02:44.902Z,2.12
2023-02-02T19:07:58.696Z,2.11
2023-02-02T19:13:19.640Z,2.07
2023-02-02T19:18:25.376Z,2.01
2023-02-02T19:23:54.782Z,1.98
2023-02-02T19:29:22.775Z,1.98
2023-02-02T19:34:27.293Z,2.01
2023-02-02T19:39:32.684Z,1.97
2023-02-02T19:44:38.962Z,1.94
2023-02-02T19:49:42.496Z,1.91
2023-02-02T19:54:50.655Z,1.90
2023-02-02T19:59:55.460Z,1.91
2023-02-02T20:19:27.351Z,1.95
2023-02-02T20:28:59.515Z,2.01
2023-02-02T20:34:23.871Z,1.94
2023-02-02T20:53:43.898Z,1.75
2023-02-02T20:59:37.797Z,1.68
2023-02-02T21:04:47.026Z,1.55
2023-02-02T21:10:41.135Z,1.49
2023-02-02T21:16:41.367Z,1.46
2023-02-02T21:21:46.227Z,1.48
2023-02-02T21:26:52.459Z,1.44
2023-02-02T21:32:22.857Z,1.37
2023-02-02T21:37:27.934Z,1.24
2023-02-02T21:42:50.788Z,1.14
2023-02-02T21:47:59.163Z,1.08
2023-02-02T21:53:25.924Z,1.06
2023-02-02T21:58:38.819Z,1.01
2023-02-02T22:03:51.175Z,0.92
2023-02-02T22:09:08.017Z,0.86
2023-02-02T22:14:36.827Z,0.78
2023-02-02T22:19:41.020Z,0.70
2023-02-02T22:24:48.875Z,0.66
2023-02-02T22:38:37.904Z,0.57
2023-02-02T22:43:41.503Z,0.49
2023-02-02T22:48:46.354Z,0.48
2023-02-02T22:53:51.101Z,0.45
2023-02-02T22:58:54.813Z,0.43
2023-02-02T23:03:58.696Z,0.43
2023-02-02T23:09:02.379Z,0.40
2023-02-02T23:14:06.086Z,0.32
2023-02-02T23:19:09.612Z,0.21
2023-02-02T23:24:13.120Z,0.18
2023-02-02T23:29:16.663Z,0.14
2023-02-02T23:41:31.985Z,-0.01
2023-02-02T23:47:02.456Z,-0.08
2023-02-02T23:52:07.187Z,-0.09
